createdAt,value
2017-10-21T00:01:21.763Z,12.40
2017-10-21T00:03:48.531Z,12.40
2017-10-21T00:06:14.745Z,12.30
2017-10-21T00:08:40.943Z,12.20
2017-10-21T00:11:08.931Z,12.20
2017-10-21T00:13:35.671Z,12.20
2017-10-21T00:16:02.840Z,12.30
2017-10-21T00:18:29.327Z,12.20
2017-10-21T00:20:56.988Z,12.10
2017-10-21T00:23:23.259Z,12.10
2017-10-21T00:25:50.320Z,12.20
2017-10-21T00:28:17.510Z,12.20
2017-10-21T00:30:44.493Z,12.20
2017-10-21T00:33:11.441Z,12.10
2017-10-21T00:35:38.229Z,12.20
2017-10-21T00:38:04.500Z,12.10
2017-10-21T00:40:30.949Z,12.10
2017-10-21T00:42:57.805Z,12.20
2017-10-21T00:45:25.073Z,12.10
2017-10-21T00:47:51.820Z,12.10
2017-10-21T00:50:19.348Z,12.10
2017-10-21T00:52:46.550Z,12.10
2017-10-21T00:55:13.516Z,12.10
2017-10-21T00:57:40.665Z,12.10
2017-10-21T01:00:07.977Z,12.10
2017-10-21T01:02:34.827Z,12.10
2017-10-21T01:05:01.586Z,12.00
2017-10-21T01:07:29.128Z,12.00
2017-10-21T01:09:55.396Z,12.00
2017-10-21T01:12:22.238Z,12.00
2017-10-21T01:14:49.281Z,12.00
2017-10-21T01:17:16.072Z,12.00
2017-10-21T01:19:42.544Z,12.00
2017-10-21T01:22:10.134Z,11.90
2017-10-21T01:24:36.651Z,11.90
2017-10-21T01:27:03.901Z,12.00
2017-10-21T01:29:30.128Z,11.90
2017-10-21T01:31:56.903Z,11.90
2017-10-21T01:34:23.131Z,11.80
2017-10-21T01:36:50.148Z,11.70
2017-10-21T01:39:18.153Z,11.80
2017-10-21T01:41:44.496Z,11.80
2017-10-21T01:44:10.739Z,11.80
2017-10-21T01:46:37.530Z,11.90
2017-10-21T01:49:05.130Z,11.80
2017-10-21T01:51:32.890Z,11.80
2017-10-21T01:53:59.132Z,11.80
2017-10-21T01:56:25.362Z,11.70
2017-10-21T01:58:52.119Z,11.80
2017-10-21T02:01:20.145Z,11.80
2017-10-21T02:03:47.546Z,11.90
2017-10-21T02:06:15.118Z,11.80
2017-10-21T02:08:41.349Z,11.80
2017-10-21T02:11:07.898Z,11.80
2017-10-21T02:13:34.770Z,11.90
2017-10-21T02:16:01.986Z,11.90
2017-10-21T02:18:28.241Z,11.80
2017-10-21T02:20:54.997Z,11.90
2017-10-21T02:23:21.863Z,11.90
2017-10-21T02:25:48.846Z,12.00
2017-10-21T02:28:15.663Z,12.00
2017-10-21T02:30:43.032Z,12.00
2017-10-21T02:33:09.833Z,12.00
2017-10-21T02:35:36.071Z,12.00
2017-10-21T02:38:03.048Z,12.10
2017-10-21T02:40:29.319Z,12.00
2017-10-21T02:42:56.115Z,12.10
2017-10-21T02:45:22.528Z,12.10
2017-10-21T02:47:49.499Z,12.10
2017-10-21T02:50:16.657Z,12.00
2017-10-21T02:52:43.486Z,12.00
2017-10-21T02:55:09.739Z,12.00
2017-10-21T02:57:36.607Z,11.90
2017-10-21T03:00:03.324Z,11.90
2017-10-21T03:02:29.619Z,11.90
2017-10-21T03:04:56.073Z,12.00
2017-10-21T03:07:22.300Z,12.00
2017-10-21T03:09:49.143Z,12.10
2017-10-21T03:12:15.399Z,12.20
2017-10-21T03:14:41.650Z,12.30
2017-10-21T03:17:07.855Z,12.30
2017-10-21T03:19:34.079Z,12.30
2017-10-21T03:22:00.320Z,12.40
2017-10-21T03:24:26.696Z,12.30
2017-10-21T03:26:53.846Z,12.30
2017-10-21T03:29:21.430Z,12.30
2017-10-21T03:31:48.213Z,12.20
2017-10-21T03:34:14.668Z,12.30
2017-10-21T03:36:42.183Z,12.30
2017-10-21T03:39:09.006Z,12.20
2017-10-21T03:41:35.240Z,12.20
2017-10-21T03:44:01.960Z,12.30
2017-10-21T03:46:28.946Z,12.30
2017-10-21T03:48:55.147Z,12.30
2017-10-21T03:51:21.983Z,12.30
2017-10-21T03:53:49.014Z,12.30
2017-10-21T03:56:16.379Z,12.30
2017-10-21T03:58:43.780Z,12.20
2017-10-21T04:01:11.336Z,12.20
2017-10-21T04:03:38.098Z,12.20
2017-10-21T04:06:05.291Z,12.30
2017-10-21T04:08:32.320Z,12.30
2017-10-21T04:10:58.623Z,12.30
2017-10-21T04:13:25.598Z,12.40
2017-10-21T04:15:51.956Z,12.40
2017-10-21T04:18:19.627Z,12.40
2017-10-21T04:20:46.842Z,12.40
2017-10-21T04:23:13.466Z,12.40
2017-10-21T04:25:39.707Z,12.40
2017-10-21T04:28:06.471Z,12.40
2017-10-21T04:30:33.238Z,12.40
2017-10-21T04:32:59.456Z,12.40
2017-10-21T04:35:25.695Z,12.50
2017-10-21T04:37:52.488Z,12.40
2017-10-21T04:40:18.702Z,12.50
2017-10-21T04:42:44.893Z,12.50
2017-10-21T04:45:11.237Z,12.50
2017-10-21T04:47:38.982Z,12.50
2017-10-21T04:50:07.090Z,12.50
2017-10-21T04:52:34.343Z,12.50
2017-10-21T04:55:00.825Z,12.50
2017-10-21T04:57:27.677Z,12.50
2017-10-21T04:59:53.895Z,12.50
2017-10-21T05:02:20.112Z,12.50
2017-10-21T05:04:46.319Z,12.60
2017-10-21T05:07:13.438Z,12.60
2017-10-21T05:09:40.432Z,12.60
2017-10-21T05:12:06.679Z,12.50
2017-10-21T05:14:33.215Z,12.50
2017-10-21T05:17:00.225Z,12.30
2017-10-21T05:19:27.759Z,12.30
2017-10-21T05:21:54.701Z,12.30
2017-10-21T05:24:23.096Z,12.40
2017-10-21T05:26:49.782Z,12.40
2017-10-21T05:29:17.959Z,12.60
2017-10-21T05:31:45.521Z,12.70
2017-10-21T05:34:12.272Z,12.70
2017-10-21T05:36:39.465Z,12.60
2017-10-21T05:39:07.510Z,12.60
2017-10-21T05:41:35.041Z,12.60
2017-10-21T05:44:02.144Z,12.50
2017-10-21T05:46:29.048Z,12.50
2017-10-21T05:48:56.176Z,12.60
2017-10-21T05:51:22.420Z,12.60
2017-10-21T05:53:49.359Z,12.70
2017-10-21T05:56:15.826Z,12.60
2017-10-21T05:58:42.847Z,12.70
2017-10-21T06:01:09.843Z,12.70
2017-10-21T06:03:36.104Z,12.80
2017-10-21T06:06:02.487Z,12.80
2017-10-21T06:08:28.748Z,12.90
2017-10-21T06:10:55.496Z,12.80
2017-10-21T06:13:22.797Z,12.80
2017-10-21T06:15:49.025Z,12.80
2017-10-21T06:18:16.198Z,12.70
2017-10-21T06:20:42.483Z,12.70
2017-10-21T06:23:09.982Z,12.70
2017-10-21T06:25:36.751Z,12.70
2017-10-21T06:28:03.502Z,12.70
2017-10-21T06:30:30.760Z,12.70
2017-10-21T06:32:57.870Z,12.70
2017-10-21T06:35:24.769Z,12.70
2017-10-21T06:37:51.914Z,12.80
2017-10-21T06:40:18.901Z,12.90
2017-10-21T06:42:45.947Z,12.90
2017-10-21T06:45:13.623Z,13.00
2017-10-21T06:47:39.863Z,12.90
2017-10-21T06:50:06.785Z,12.90
2017-10-21T06:52:33.658Z,12.90
2017-10-21T06:55:01.045Z,13.00
2017-10-21T06:57:27.339Z,12.90
2017-10-21T06:59:54.515Z,13.00
2017-10-21T07:02:21.480Z,13.10
2017-10-21T07:04:47.744Z,13.10
2017-10-21T07:07:14.153Z,13.10
2017-10-21T07:09:41.191Z,13.10
2017-10-21T07:12:07.484Z,13.10
2017-10-21T07:14:34.424Z,13.10
2017-10-21T07:17:00.666Z,13.10
2017-10-21T07:19:28.121Z,13.30
2017-10-21T07:21:54.461Z,13.30
2017-10-21T07:24:22.915Z,13.40
2017-10-21T07:26:49.254Z,13.40
2017-10-21T07:29:15.662Z,13.50
2017-10-21T07:31:42.043Z,13.60
2017-10-21T07:34:09.686Z,13.70
2017-10-21T07:36:37.056Z,13.80
2017-10-21T07:39:04.294Z,13.80
2017-10-21T07:41:32.262Z,13.80
2017-10-21T07:43:58.478Z,13.80
2017-10-21T07:46:25.825Z,13.80
2017-10-21T07:48:52.527Z,13.90
2017-10-21T07:51:18.923Z,13.80
2017-10-21T07:53:46.599Z,13.80
2017-10-21T07:56:13.966Z,13.80
2017-10-21T07:58:41.014Z,14.00
2017-10-21T08:01:07.752Z,14.00
2017-10-21T08:03:34.801Z,14.20
2017-10-21T08:06:01.623Z,14.20
2017-10-21T08:08:29.674Z,14.60
2017-10-21T08:10:57.471Z,14.60
2017-10-21T08:13:23.754Z,14.80
2017-10-21T08:15:49.968Z,15.00
2017-10-21T08:18:16.719Z,15.10
2017-10-21T08:20:43.561Z,15.30
2017-10-21T08:23:10.782Z,15.30
2017-10-21T08:25:37.272Z,15.30
2017-10-21T08:28:04.238Z,15.40
2017-10-21T08:30:31.434Z,15.30
2017-10-21T08:32:57.730Z,15.40
2017-10-21T08:35:23.986Z,15.30
2017-10-21T08:37:50.810Z,15.20
2017-10-21T08:40:17.024Z,15.20
2017-10-21T08:42:43.658Z,15.30
2017-10-21T08:45:11.712Z,15.30
2017-10-21T08:47:38.823Z,15.30
2017-10-21T08:50:05.833Z,15.30
2017-10-21T08:52:32.641Z,15.30
2017-10-21T08:54:59.611Z,15.30
2017-10-21T08:57:26.452Z,15.30
2017-10-21T08:59:53.216Z,15.40
2017-10-21T09:02:19.996Z,15.40
2017-10-21T09:04:46.827Z,15.40
2017-10-21T09:07:13.363Z,15.40
2017-10-21T09:09:40.413Z,15.40
2017-10-21T09:12:07.189Z,15.40
2017-10-21T09:14:33.452Z,15.50
2017-10-21T09:17:00.523Z,15.50
2017-10-21T09:19:28.511Z,15.40
2017-10-21T09:21:54.846Z,15.40
2017-10-21T09:24:21.891Z,15.50
2017-10-21T09:26:49.840Z,15.60
2017-10-21T09:29:16.799Z,15.50
2017-10-21T09:31:43.537Z,15.60
2017-10-21T09:34:11.712Z,15.60
2017-10-21T09:36:38.742Z,15.60
2017-10-21T09:39:05.043Z,15.60
2017-10-21T09:41:31.812Z,15.50
2017-10-21T09:43:58.372Z,15.50
2017-10-21T09:46:25.352Z,15.70
2017-10-21T09:48:51.701Z,15.70
2017-10-21T09:51:17.930Z,15.80
2017-10-21T09:53:44.680Z,15.90
2017-10-21T09:56:11.442Z,15.90
2017-10-21T09:58:38.164Z,15.90
2017-10-21T10:01:04.923Z,16.00
2017-10-21T10:03:32.673Z,16.00
2017-10-21T10:05:58.911Z,16.00
2017-10-21T10:08:26.138Z,16.00
2017-10-21T10:10:52.896Z,15.90
2017-10-21T10:13:19.134Z,15.90
2017-10-21T10:15:45.335Z,15.90
2017-10-21T10:18:11.675Z,16.10
2017-10-21T10:20:39.522Z,16.30
2017-10-21T10:23:06.283Z,16.30
2017-10-21T10:25:33.075Z,16.50
2017-10-21T10:27:59.842Z,16.60
2017-10-21T10:30:26.510Z,16.70
2017-10-21T10:32:54.116Z,16.90
2017-10-21T10:35:21.593Z,16.90
2017-10-21T10:37:49.177Z,17.00
2017-10-21T10:40:15.929Z,17.00
2017-10-21T10:42:43.649Z,17.00
2017-10-21T10:45:10.889Z,17.00
2017-10-21T10:47:37.631Z,17.10
2017-10-21T10:50:10.719Z,17.20
2017-10-21T10:52:37.081Z,17.30
2017-10-21T10:55:03.834Z,17.30
2017-10-21T10:57:30.410Z,17.20
2017-10-21T10:59:57.994Z,17.40
2017-10-21T11:02:24.710Z,17.40
2017-10-21T11:04:51.922Z,17.60
2017-10-21T11:07:19.445Z,17.60
2017-10-21T11:09:45.705Z,17.60
2017-10-21T11:12:12.354Z,17.60
2017-10-21T11:14:39.282Z,17.70
2017-10-21T11:17:06.667Z,17.80
2017-10-21T11:19:33.655Z,17.80
2017-10-21T11:22:00.080Z,17.80
2017-10-21T11:24:27.767Z,17.90
2017-10-21T11:26:54.499Z,17.80
2017-10-21T11:29:21.585Z,18.00
2017-10-21T11:31:49.111Z,18.00
2017-10-21T11:34:16.281Z,17.90
2017-10-21T11:36:43.655Z,17.90
2017-10-21T11:39:10.020Z,17.90
2017-10-21T11:41:36.330Z,18.00
2017-10-21T11:44:03.305Z,18.30
2017-10-21T11:46:29.491Z,18.20
2017-10-21T11:48:56.816Z,18.20
2017-10-21T11:51:23.087Z,18.20
2017-10-21T11:53:50.758Z,18.30
2017-10-21T11:56:17.697Z,18.30
2017-10-21T11:58:45.219Z,18.30
2017-10-21T12:01:12.031Z,18.30
2017-10-21T12:03:39.513Z,18.30
2017-10-21T12:06:06.531Z,18.50
2017-10-21T12:08:33.991Z,18.50
2017-10-21T12:11:01.233Z,18.50
2017-10-21T12:13:27.605Z,18.40
2017-10-21T12:15:53.866Z,18.40
2017-10-21T12:18:20.903Z,18.40
2017-10-21T12:20:47.862Z,18.40
2017-10-21T12:23:14.824Z,18.40
2017-10-21T12:25:41.050Z,18.40
2017-10-21T12:28:07.302Z,18.40
2017-10-21T12:30:34.315Z,18.40
2017-10-21T12:33:00.924Z,18.30
2017-10-21T12:35:27.908Z,18.20
2017-10-21T12:37:54.252Z,18.20
2017-10-21T12:40:21.165Z,18.40
2017-10-21T12:42:48.733Z,18.40
2017-10-21T12:45:14.974Z,18.40
2017-10-21T12:47:41.684Z,18.40
2017-10-21T12:50:08.763Z,18.20
2017-10-21T12:52:35.623Z,18.20
2017-10-21T12:55:02.141Z,18.20
2017-10-21T12:57:28.482Z,18.20
2017-10-21T12:59:54.676Z,18.30
2017-10-21T13:02:20.959Z,18.30
2017-10-21T13:04:47.162Z,18.30
2017-10-21T13:07:13.367Z,18.40
2017-10-21T13:09:40.088Z,18.40
2017-10-21T13:12:07.179Z,18.30
2017-10-21T13:14:33.383Z,18.30
2017-10-21T13:17:00.148Z,18.40
2017-10-21T13:19:26.343Z,18.30
2017-10-21T13:21:52.575Z,18.30
2017-10-21T13:24:19.412Z,18.20
2017-10-21T13:26:45.688Z,18.20
2017-10-21T13:29:12.699Z,18.20
2017-10-21T13:31:39.802Z,18.20
2017-10-21T13:34:06.027Z,18.20
2017-10-21T13:36:32.374Z,18.10
2017-10-21T13:38:59.356Z,18.20
2017-10-21T13:41:26.597Z,18.10
2017-10-21T13:43:53.439Z,18.20
2017-10-21T13:46:20.351Z,18.20
2017-10-21T13:48:48.580Z,18.10
2017-10-21T13:51:15.365Z,18.00
2017-10-21T13:53:41.610Z,17.90
2017-10-21T13:56:09.151Z,17.80
2017-10-21T13:58:35.380Z,17.80
2017-10-21T14:01:02.161Z,17.80
2017-10-21T14:03:28.396Z,17.80
2017-10-21T14:05:56.611Z,17.90
2017-10-21T14:08:23.638Z,17.90
2017-10-21T14:10:50.541Z,17.60
2017-10-21T14:13:17.426Z,17.60
2017-10-21T14:15:43.868Z,17.60
2017-10-21T14:18:11.073Z,17.60
2017-10-21T14:20:37.307Z,17.60
2017-10-21T14:23:03.799Z,17.70
2017-10-21T14:25:31.077Z,17.70
2017-10-21T14:27:58.704Z,17.80
2017-10-21T14:30:24.952Z,17.70
2017-10-21T14:32:51.907Z,17.90
2017-10-21T14:35:19.748Z,17.90
2017-10-21T14:37:46.763Z,17.90
2017-10-21T14:40:13.539Z,17.90
2017-10-21T14:42:40.130Z,17.90
2017-10-21T14:45:07.152Z,17.90
2017-10-21T14:47:34.070Z,17.90
2017-10-21T14:50:01.242Z,17.90
2017-10-21T14:52:27.507Z,17.90
2017-10-21T14:54:54.370Z,17.90
2017-10-21T14:57:21.126Z,17.90
2017-10-21T14:59:48.440Z,17.90
2017-10-21T15:02:14.837Z,17.80
2017-10-21T15:17:41.874Z,17.90
2017-10-21T15:20:08.557Z,17.40
2017-10-21T15:22:35.573Z,17.40
2017-10-21T15:25:01.888Z,17.40
2017-10-21T15:27:28.349Z,17.40
2017-10-21T15:29:54.728Z,17.40
2017-10-21T15:32:22.605Z,17.40
2017-10-21T15:34:49.727Z,17.40
2017-10-21T15:37:16.146Z,17.40
2017-10-21T15:39:42.931Z,17.40
2017-10-21T15:42:09.403Z,17.40
2017-10-21T15:44:36.792Z,17.40
2017-10-21T15:47:03.342Z,17.40
2017-10-21T15:49:30.900Z,17.20
2017-10-21T15:51:58.627Z,17.10
2017-10-21T15:54:24.867Z,17.10
2017-10-21T15:56:51.225Z,17.10
2017-10-21T15:59:18.242Z,17.00
2017-10-21T16:01:44.475Z,17.00
2017-10-21T16:04:10.677Z,17.00
2017-10-21T16:06:37.089Z,17.10
2017-10-21T16:09:04.469Z,17.00
2017-10-21T16:11:30.960Z,17.00
2017-10-21T16:13:58.098Z,17.00
2017-10-21T16:16:25.069Z,17.00
2017-10-21T16:18:51.453Z,17.00
2017-10-21T16:21:18.257Z,16.90
2017-10-21T16:23:44.997Z,16.80
2017-10-21T16:26:11.231Z,16.80
2017-10-21T16:28:37.817Z,16.90
2017-10-21T16:31:05.111Z,16.70
2017-10-21T16:33:31.371Z,16.70
2017-10-21T16:35:58.258Z,16.70
2017-10-21T16:38:24.880Z,16.60
2017-10-21T16:40:51.958Z,16.70
2017-10-21T16:43:18.233Z,16.60
2017-10-21T16:45:46.109Z,16.70
2017-10-21T16:48:13.149Z,16.60
2017-10-21T16:50:40.250Z,16.70
2017-10-21T16:53:06.701Z,16.60
2017-10-21T16:55:32.906Z,16.60
2017-10-21T16:57:59.795Z,16.70
2017-10-21T17:00:26.050Z,16.60
2017-10-21T17:02:53.576Z,16.60
2017-10-21T17:05:19.848Z,16.50
2017-10-21T17:07:46.851Z,16.50
2017-10-21T17:10:13.042Z,16.50
2017-10-21T17:12:39.311Z,16.50
2017-10-21T17:15:05.528Z,16.50
2017-10-21T17:17:31.790Z,16.50
2017-10-21T17:19:59.072Z,16.40
2017-10-21T17:22:26.364Z,16.40
2017-10-21T17:24:53.416Z,16.30
2017-10-21T17:27:20.069Z,16.30
2017-10-21T17:29:46.330Z,16.30
2017-10-21T17:32:14.090Z,16.30
2017-10-21T17:34:41.108Z,16.30
2017-10-21T17:37:07.888Z,16.30
2017-10-21T17:39:34.139Z,16.30
2017-10-21T17:42:01.427Z,16.20
2017-10-21T17:44:27.908Z,16.20
2017-10-21T17:46:55.613Z,16.20
2017-10-21T17:49:22.381Z,16.20
2017-10-21T17:51:56.307Z,16.20
2017-10-21T17:54:25.111Z,16.30
2017-10-21T17:56:51.982Z,16.20
2017-10-21T17:59:18.454Z,16.20
2017-10-21T18:01:46.535Z,16.20
2017-10-21T18:04:13.080Z,16.20
2017-10-21T18:06:46.326Z,16.20
2017-10-21T18:09:13.071Z,16.10
2017-10-21T18:11:39.651Z,16.10
2017-10-21T18:14:07.504Z,16.10
2017-10-21T18:16:35.042Z,16.10
2017-10-21T18:19:01.468Z,16.10
2017-10-21T18:21:27.677Z,16.10
2017-10-21T18:23:54.052Z,16.20
2017-10-21T18:26:21.101Z,16.20
2017-10-21T18:28:48.558Z,16.20
2017-10-21T18:31:15.672Z,16.10
2017-10-21T18:33:42.961Z,16.10
2017-10-21T18:36:10.228Z,16.00
2017-10-21T18:38:36.663Z,16.00
2017-10-21T18:41:04.396Z,15.90
2017-10-21T18:43:32.587Z,15.90
2017-10-21T18:45:59.481Z,15.90
2017-10-21T18:48:26.863Z,15.80
2017-10-21T18:50:54.693Z,15.80
2017-10-21T18:53:22.175Z,15.70
2017-10-21T18:55:48.395Z,15.70
2017-10-21T18:58:14.611Z,15.60
2017-10-21T19:00:41.508Z,15.60
2017-10-21T19:03:08.807Z,15.50
2017-10-21T19:05:35.828Z,15.40
2017-10-21T19:08:03.062Z,15.50
2017-10-21T19:10:30.003Z,15.40
2017-10-21T19:12:57.057Z,15.40
2017-10-21T19:15:24.089Z,15.30
2017-10-21T19:17:51.129Z,15.30
2017-10-21T19:20:18.602Z,15.30
2017-10-21T19:22:45.253Z,15.20
2017-10-21T19:25:12.546Z,15.10
2017-10-21T19:27:39.588Z,15.00
2017-10-21T19:30:06.421Z,15.00
2017-10-21T19:32:33.057Z,15.00
2017-10-21T19:34:59.363Z,15.00
2017-10-21T19:37:26.228Z,15.00
2017-10-21T19:39:53.318Z,14.90
2017-10-21T19:42:20.359Z,14.80
2017-10-21T19:44:46.583Z,14.80
2017-10-21T19:47:12.845Z,14.80
2017-10-21T19:49:39.055Z,14.80
2017-10-21T19:52:06.217Z,14.70
2017-10-21T19:54:33.407Z,14.70
2017-10-21T19:56:59.616Z,14.70
2017-10-21T19:59:26.408Z,14.70
2017-10-21T20:01:52.668Z,14.60
2017-10-21T20:04:18.894Z,14.60
2017-10-21T20:06:46.016Z,14.40
2017-10-21T20:09:13.010Z,14.30
2017-10-21T20:11:39.541Z,14.30
2017-10-21T20:14:07.356Z,14.30
2017-10-21T20:16:35.125Z,14.40
2017-10-21T20:19:02.110Z,14.40
2017-10-21T20:21:28.330Z,14.30
2017-10-21T20:23:54.578Z,14.40
2017-10-21T20:26:20.787Z,14.30
2017-10-21T20:28:47.705Z,14.30
2017-10-21T20:31:14.627Z,14.30
2017-10-21T20:33:40.863Z,14.30
2017-10-21T20:36:08.322Z,14.30
2017-10-21T20:38:35.579Z,14.20
2017-10-21T20:41:02.552Z,14.20
2017-10-21T20:43:29.486Z,14.20
2017-10-21T20:45:56.472Z,14.20
2017-10-21T20:48:23.874Z,14.20
2017-10-21T20:50:50.644Z,14.10
2017-10-21T20:53:16.904Z,14.10
2017-10-21T20:55:43.185Z,14.10
2017-10-21T20:58:10.538Z,14.10
2017-10-21T21:00:39.880Z,14.00
2017-10-21T21:03:07.062Z,14.10
2017-10-21T21:05:34.681Z,14.10
2017-10-21T21:08:01.026Z,14.10
2017-10-21T21:10:27.251Z,14.10
2017-10-21T21:12:54.753Z,14.10
2017-10-21T21:15:22.464Z,14.10
2017-10-21T21:17:48.690Z,14.10
2017-10-21T21:20:14.934Z,14.10
2017-10-21T21:22:41.132Z,14.00
2017-10-21T21:25:07.359Z,13.90
2017-10-21T21:27:33.710Z,13.90
2017-10-21T21:30:01.047Z,13.90
2017-10-21T21:32:27.537Z,13.90
2017-10-21T21:34:54.508Z,13.90
2017-10-21T21:37:20.735Z,13.90
2017-10-21T21:39:46.948Z,13.90
2017-10-21T21:42:13.933Z,13.80
2017-10-21T21:44:40.151Z,13.80
2017-10-21T21:47:06.339Z,13.80
2017-10-21T21:49:33.323Z,13.70
2017-10-21T21:52:00.356Z,13.70
2017-10-21T21:54:26.590Z,13.70
2017-10-21T21:56:52.927Z,13.70
2017-10-21T21:59:19.358Z,13.70
2017-10-21T22:01:45.613Z,13.70
2017-10-21T22:04:12.936Z,13.70
2017-10-21T22:06:39.705Z,13.70
2017-10-21T22:09:06.186Z,13.70
2017-10-21T22:11:33.736Z,13.60
2017-10-21T22:14:01.157Z,13.60
2017-10-21T22:16:27.371Z,13.60
2017-10-21T22:18:54.160Z,13.60
2017-10-21T22:21:21.154Z,13.60
2017-10-21T22:23:47.353Z,13.60
2017-10-21T22:26:14.306Z,13.60
2017-10-21T22:28:41.160Z,13.60
2017-10-21T22:31:07.413Z,13.50
2017-10-21T22:33:33.660Z,13.50
2017-10-21T22:35:59.864Z,13.50
2017-10-21T22:38:26.055Z,13.50
2017-10-21T22:40:53.496Z,13.50
2017-10-21T22:43:20.916Z,13.50
2017-10-21T22:45:47.929Z,13.50
2017-10-21T22:48:14.161Z,13.50
2017-10-21T22:50:41.068Z,13.40
2017-10-21T22:53:08.487Z,13.50
2017-10-21T22:55:36.292Z,13.50
2017-10-21T22:58:03.767Z,13.50
2017-10-21T23:00:30.558Z,13.40
2017-10-21T23:02:57.849Z,13.40
2017-10-21T23:05:25.346Z,13.30
2017-10-21T23:07:52.411Z,13.20
2017-10-21T23:10:19.314Z,13.20
2017-10-21T23:12:45.882Z,13.20
2017-10-21T23:15:12.904Z,13.40
2017-10-21T23:17:39.136Z,13.30
2017-10-21T23:20:05.938Z,13.40
2017-10-21T23:22:33.838Z,13.50
2017-10-21T23:25:00.656Z,13.50
2017-10-21T23:27:28.236Z,13.60
2017-10-21T23:29:54.447Z,13.60
2017-10-21T23:32:21.070Z,13.60
2017-10-21T23:34:48.387Z,13.70
2017-10-21T23:37:14.650Z,13.60
2017-10-21T23:39:40.854Z,13.70
2017-10-21T23:42:07.909Z,13.70
2017-10-21T23:44:34.091Z,13.80
2017-10-21T23:47:00.356Z,13.90
2017-10-21T23:49:26.583Z,13.90
2017-10-21T23:51:53.444Z,13.90
2017-10-21T23:54:19.685Z,13.90
2017-10-21T23:56:47.659Z,13.90
2017-10-21T23:59:14.603Z,14.00
